sensor_id;sensor_type;location;lat;lon;timestamp;pressure;altitude;pressure_sealevel;temperature;humidity
39954;BME280;25631;51.516;-0.470;2023-04-27T00:00:03;101643.37;;;9.55;30.10
39954;BME280;25631;51.516;-0.470;2023-04-27T00:02:39;101642.89;;;9.32;30.15
39954;BME280;25631;51.516;-0.470;2023-04-27T00:05:17;101645.43;;;9.43;30.15
39954;BME280;25631;51.516;-0.470;2023-04-27T00:07:54;101645.03;;;9.53;30.21
39954;BME280;25631;51.516;-0.470;2023-04-27T00:10:35;101642.60;;;9.27;30.25
39954;BME280;25631;51.516;-0.470;2023-04-27T00:13:12;101640.62;;;9.45;30.27
39954;BME280;25631;51.516;-0.470;2023-04-27T00:15:48;101640.65;;;9.18;30.31
39954;BME280;25631;51.516;-0.470;2023-04-27T00:18:25;101638.14;;;9.34;30.41
39954;BME280;25631;51.516;-0.470;2023-04-27T00:21:01;101632.99;;;9.20;30.45
39954;BME280;25631;51.516;-0.470;2023-04-27T00:23:38;101631.17;;;9.25;30.59
39954;BME280;25631;51.516;-0.470;2023-04-27T00:26:14;101631.84;;;8.96;30.55
39954;BME280;25631;51.516;-0.470;2023-04-27T00:28:51;101633.03;;;9.10;30.58
39954;BME280;25631;51.516;-0.470;2023-04-27T00:31:28;101628.18;;;9.41;30.54
39954;BME280;25631;51.516;-0.470;2023-04-27T00:34:04;101626.36;;;9.03;30.47
39954;BME280;25631;51.516;-0.470;2023-04-27T00:36:41;101625.97;;;9.03;30.45
39954;BME280;25631;51.516;-0.470;2023-04-27T00:39:17;101621.79;;;9.08;30.38
39954;BME280;25631;51.516;-0.470;2023-04-27T00:41:54;101619.38;;;9.00;30.37
39954;BME280;25631;51.516;-0.470;2023-04-27T00:44:30;101618.63;;;9.12;30.38
39954;BME280;25631;51.516;-0.470;2023-04-27T00:47:07;101617.57;;;8.83;30.41
39954;BME280;25631;51.516;-0.470;2023-04-27T00:49:44;101612.20;;;8.95;30.47
39954;BME280;25631;51.516;-0.470;2023-04-27T00:52:21;101605.58;;;8.89;30.51
39954;BME280;25631;51.516;-0.470;2023-04-27T00:54:58;101599.76;;;8.86;30.47
39954;BME280;25631;51.516;-0.470;2023-04-27T00:57:37;101594.07;;;9.00;30.46
39954;BME280;25631;51.516;-0.470;2023-04-27T01:00:14;101589.39;;;8.80;30.48
39954;BME280;25631;51.516;-0.470;2023-04-27T01:02:51;101584.04;;;8.76;30.61
39954;BME280;25631;51.516;-0.470;2023-04-27T01:05:28;101578.28;;;8.49;30.67
39954;BME280;25631;51.516;-0.470;2023-04-27T01:08:05;101572.82;;;8.71;30.78
39954;BME280;25631;51.516;-0.470;2023-04-27T01:10:41;101566.19;;;8.24;30.85
39954;BME280;25631;51.516;-0.470;2023-04-27T01:13:18;101561.80;;;8.62;30.88
39954;BME280;25631;51.516;-0.470;2023-04-27T01:15:55;101554.83;;;8.35;31.00
39954;BME280;25631;51.516;-0.470;2023-04-27T01:18:31;101549.48;;;8.91;31.10
39954;BME280;25631;51.516;-0.470;2023-04-27T01:21:07;101546.47;;;8.39;31.20
39954;BME280;25631;51.516;-0.470;2023-04-27T01:23:44;101545.69;;;8.39;31.32
39954;BME280;25631;51.516;-0.470;2023-04-27T01:26:26;101545.74;;;8.51;31.41
39954;BME280;25631;51.516;-0.470;2023-04-27T01:29:02;101543.74;;;8.27;31.42
39954;BME280;25631;51.516;-0.470;2023-04-27T01:31:39;101541.76;;;8.37;31.45
39954;BME280;25631;51.516;-0.470;2023-04-27T01:34:15;101540.17;;;8.44;31.58
39954;BME280;25631;51.516;-0.470;2023-04-27T01:36:52;101543.33;;;8.43;31.54
39954;BME280;25631;51.516;-0.470;2023-04-27T01:39:28;101547.03;;;8.35;31.69
39954;BME280;25631;51.516;-0.470;2023-04-27T01:42:04;101545.98;;;8.20;31.79
39954;BME280;25631;51.516;-0.470;2023-04-27T01:44:41;101552.73;;;8.36;31.86
39954;BME280;25631;51.516;-0.470;2023-04-27T01:47:17;101555.84;;;8.31;31.87
39954;BME280;25631;51.516;-0.470;2023-04-27T01:49:54;101558.51;;;8.12;31.89
39954;BME280;25631;51.516;-0.470;2023-04-27T01:52:30;101555.69;;;8.33;31.89
39954;BME280;25631;51.516;-0.470;2023-04-27T01:55:07;101559.26;;;7.99;31.91
39954;BME280;25631;51.516;-0.470;2023-04-27T01:57:44;101569.10;;;8.24;31.79
39954;BME280;25631;51.516;-0.470;2023-04-27T02:00:20;101577.10;;;7.99;32.15
39954;BME280;25631;51.516;-0.470;2023-04-27T02:02:57;101579.81;;;8.07;32.22
39954;BME280;25631;51.516;-0.470;2023-04-27T02:05:34;101584.49;;;8.17;32.23
39954;BME280;25631;51.516;-0.470;2023-04-27T02:08:10;101587.32;;;8.24;32.32
39954;BME280;25631;51.516;-0.470;2023-04-27T02:10:47;101583.10;;;7.99;32.37
39954;BME280;25631;51.516;-0.470;2023-04-27T02:13:23;101584.85;;;8.05;32.34
39954;BME280;25631;51.516;-0.470;2023-04-27T02:16:00;101586.90;;;7.80;32.41
39954;BME280;25631;51.516;-0.470;2023-04-27T02:18:36;101587.91;;;7.99;32.40
39954;BME280;25631;51.516;-0.470;2023-04-27T02:21:13;101588.29;;;7.95;32.39
39954;BME280;25631;51.516;-0.470;2023-04-27T02:23:50;101585.93;;;7.88;32.40
39954;BME280;25631;51.516;-0.470;2023-04-27T02:26:26;101583.83;;;7.91;32.42
39954;BME280;25631;51.516;-0.470;2023-04-27T02:29:02;101578.15;;;7.84;32.43
39954;BME280;25631;51.516;-0.470;2023-04-27T02:31:39;101573.34;;;7.76;32.45
39954;BME280;25631;51.516;-0.470;2023-04-27T02:34:15;101575.23;;;7.69;32.42
39954;BME280;25631;51.516;-0.470;2023-04-27T02:36:52;101575.39;;;7.73;32.46
39954;BME280;25631;51.516;-0.470;2023-04-27T02:39:28;101570.99;;;7.65;32.53
39954;BME280;25631;51.516;-0.470;2023-04-27T02:42:05;101572.49;;;7.68;32.56
39954;BME280;25631;51.516;-0.470;2023-04-27T02:44:41;101571.45;;;7.69;32.61
39954;BME280;25631;51.516;-0.470;2023-04-27T02:47:18;101569.59;;;7.72;32.60
39954;BME280;25631;51.516;-0.470;2023-04-27T02:49:55;101566.82;;;7.51;32.66
39954;BME280;25631;51.516;-0.470;2023-04-27T02:52:31;101570.10;;;7.43;32.74
39954;BME280;25631;51.516;-0.470;2023-04-27T02:55:08;101568.91;;;7.35;32.84
39954;BME280;25631;51.516;-0.470;2023-04-27T02:57:50;101566.42;;;7.17;32.95
39954;BME280;25631;51.516;-0.470;2023-04-27T03:00:27;101564.39;;;7.10;32.97
39954;BME280;25631;51.516;-0.470;2023-04-27T03:03:03;101562.35;;;7.26;32.95
39954;BME280;25631;51.516;-0.470;2023-04-27T03:05:40;101565.11;;;7.23;32.96
39954;BME280;25631;51.516;-0.470;2023-04-27T03:08:16;101564.45;;;7.74;33.06
39954;BME280;25631;51.516;-0.470;2023-04-27T03:10:52;101563.38;;;7.12;33.13
39954;BME280;25631;51.516;-0.470;2023-04-27T03:13:29;101561.36;;;7.45;33.25
39954;BME280;25631;51.516;-0.470;2023-04-27T03:16:07;101560.66;;;7.20;33.33
39954;BME280;25631;51.516;-0.470;2023-04-27T03:18:43;101558.57;;;7.29;33.41
39954;BME280;25631;51.516;-0.470;2023-04-27T03:21:20;101555.79;;;7.18;33.50
39954;BME280;25631;51.516;-0.470;2023-04-27T03:23:57;101552.59;;;7.27;33.54
39954;BME280;25631;51.516;-0.470;2023-04-27T03:26:33;101550.16;;;7.38;33.56
39954;BME280;25631;51.516;-0.470;2023-04-27T03:29:10;101547.95;;;6.82;33.57
39954;BME280;25631;51.516;-0.470;2023-04-27T03:31:46;101545.68;;;7.43;33.57
39954;BME280;25631;51.516;-0.470;2023-04-27T03:34:22;101541.81;;;7.23;33.55
39954;BME280;25631;51.516;-0.470;2023-04-27T03:36:59;101541.97;;;7.02;33.54
39954;BME280;25631;51.516;-0.470;2023-04-27T03:39:35;101544.10;;;7.37;33.61
39954;BME280;25631;51.516;-0.470;2023-04-27T03:42:12;101548.25;;;7.24;33.70
39954;BME280;25631;51.516;-0.470;2023-04-27T03:44:48;101545.28;;;7.42;33.74
39954;BME280;25631;51.516;-0.470;2023-04-27T03:47:25;101544.19;;;7.00;33.77
39954;BME280;25631;51.516;-0.470;2023-04-27T03:50:07;101546.85;;;7.20;33.85
39954;BME280;25631;51.516;-0.470;2023-04-27T03:52:44;101543.73;;;7.23;33.86
39954;BME280;25631;51.516;-0.470;2023-04-27T03:55:20;101539.85;;;7.25;33.84
39954;BME280;25631;51.516;-0.470;2023-04-27T03:57:57;101534.32;;;7.36;33.89
39954;BME280;25631;51.516;-0.470;2023-04-27T04:00:33;101525.17;;;7.37;33.86
39954;BME280;25631;51.516;-0.470;2023-04-27T04:03:10;101521.57;;;7.14;33.80
39954;BME280;25631;51.516;-0.470;2023-04-27T04:05:46;101517.06;;;7.21;33.76
39954;BME280;25631;51.516;-0.470;2023-04-27T04:08:23;101519.41;;;6.95;33.79
39954;BME280;25631;51.516;-0.470;2023-04-27T04:10:59;101521.52;;;7.42;33.87
39954;BME280;25631;51.516;-0.470;2023-04-27T04:13:36;101517.94;;;7.05;33.99
39954;BME280;25631;51.516;-0.470;2023-04-27T04:16:12;101519.41;;;7.34;34.05
39954;BME280;25631;51.516;-0.470;2023-04-27T04:18:49;101516.39;;;7.03;34.08
39954;BME280;25631;51.516;-0.470;2023-04-27T04:21:26;101515.64;;;7.15;34.09
39954;BME280;25631;51.516;-0.470;2023-04-27T04:24:02;101518.39;;;7.24;34.20
39954;BME280;25631;51.516;-0.470;2023-04-27T04:26:39;101514.72;;;7.34;34.29
39954;BME280;25631;51.516;-0.470;2023-04-27T04:29:15;101505.07;;;7.26;34.31
39954;BME280;25631;51.516;-0.470;2023-04-27T04:31:52;101495.38;;;6.77;34.24
39954;BME280;25631;51.516;-0.470;2023-04-27T04:34:29;101493.28;;;7.38;34.20
39954;BME280;25631;51.516;-0.470;2023-04-27T04:37:05;101494.37;;;7.20;34.21
39954;BME280;25631;51.516;-0.470;2023-04-27T04:39:41;101495.56;;;7.17;34.22
39954;BME280;25631;51.516;-0.470;2023-04-27T04:42:18;101492.10;;;6.98;34.23
39954;BME280;25631;51.516;-0.470;2023-04-27T04:44:54;101488.86;;;7.01;34.13
39954;BME280;25631;51.516;-0.470;2023-04-27T04:47:31;101492.07;;;6.96;34.14
39954;BME280;25631;51.516;-0.470;2023-04-27T04:50:08;101501.37;;;6.96;34.21
39954;BME280;25631;51.516;-0.470;2023-04-27T04:52:45;101495.30;;;7.15;34.25
39954;BME280;25631;51.516;-0.470;2023-04-27T04:55:21;101491.17;;;7.23;34.28
39954;BME280;25631;51.516;-0.470;2023-04-27T04:57:58;101490.31;;;7.02;34.34
39954;BME280;25631;51.516;-0.470;2023-04-27T05:00:34;101492.16;;;6.80;34.47
39954;BME280;25631;51.516;-0.470;2023-04-27T05:03:10;101490.19;;;7.03;34.48
39954;BME280;25631;51.516;-0.470;2023-04-27T05:05:47;101480.79;;;7.06;34.38
39954;BME280;25631;51.516;-0.470;2023-04-27T05:08:24;101477.83;;;7.22;34.41
39954;BME280;25631;51.516;-0.470;2023-04-27T05:11:00;101478.85;;;7.10;34.45
39954;BME280;25631;51.516;-0.470;2023-04-27T05:13:37;101474.45;;;7.05;34.51
39954;BME280;25631;51.516;-0.470;2023-04-27T05:16:14;101479.52;;;7.17;34.56
39954;BME280;25631;51.516;-0.470;2023-04-27T05:18:50;101483.09;;;7.15;34.77
39954;BME280;25631;51.516;-0.470;2023-04-27T05:21:27;101482.30;;;7.10;34.89
39954;BME280;25631;51.516;-0.470;2023-04-27T05:24:04;101482.41;;;6.98;34.92
39954;BME280;25631;51.516;-0.470;2023-04-27T05:26:42;101485.38;;;7.46;34.82
39954;BME280;25631;51.516;-0.470;2023-04-27T05:29:19;101483.67;;;7.26;34.90
39954;BME280;25631;51.516;-0.470;2023-04-27T05:31:56;101476.83;;;6.97;34.99
39954;BME280;25631;51.516;-0.470;2023-04-27T05:34:32;101478.18;;;7.22;35.16
39954;BME280;25631;51.516;-0.470;2023-04-27T05:37:09;101474.92;;;7.15;35.11
39954;BME280;25631;51.516;-0.470;2023-04-27T05:39:46;101475.20;;;7.38;35.17
39954;BME280;25631;51.516;-0.470;2023-04-27T05:42:22;101476.85;;;7.38;35.44
39954;BME280;25631;51.516;-0.470;2023-04-27T05:44:58;101476.15;;;7.30;35.47
39954;BME280;25631;51.516;-0.470;2023-04-27T05:47:35;101480.68;;;7.86;35.65
39954;BME280;25631;51.516;-0.470;2023-04-27T05:50:11;101486.30;;;7.23;35.67
39954;BME280;25631;51.516;-0.470;2023-04-27T05:52:48;101488.90;;;7.49;35.70
39954;BME280;25631;51.516;-0.470;2023-04-27T05:55:24;101492.64;;;7.81;35.63
39954;BME280;25631;51.516;-0.470;2023-04-27T05:58:01;101494.00;;;7.65;35.55
39954;BME280;25631;51.516;-0.470;2023-04-27T06:00:38;101496.85;;;7.73;35.55
39954;BME280;25631;51.516;-0.470;2023-04-27T06:03:14;101498.45;;;7.97;35.49
39954;BME280;25631;51.516;-0.470;2023-04-27T06:05:53;101496.01;;;7.86;35.47
39954;BME280;25631;51.516;-0.470;2023-04-27T06:08:30;101499.70;;;8.05;35.42
39954;BME280;25631;51.516;-0.470;2023-04-27T06:11:07;101501.34;;;8.02;35.41
39954;BME280;25631;51.516;-0.470;2023-04-27T06:13:43;101504.89;;;8.02;35.37
39954;BME280;25631;51.516;-0.470;2023-04-27T06:16:20;101511.24;;;7.97;35.20
39954;BME280;25631;51.516;-0.470;2023-04-27T06:18:56;101513.58;;;8.28;35.10
39954;BME280;25631;51.516;-0.470;2023-04-27T06:21:33;101511.37;;;8.31;35.17
39954;BME280;25631;51.516;-0.470;2023-04-27T06:24:10;101507.14;;;8.28;35.14
39954;BME280;25631;51.516;-0.470;2023-04-27T06:26:50;101508.58;;;8.33;35.05
39954;BME280;25631;51.516;-0.470;2023-04-27T06:29:27;101501.88;;;8.46;34.86
39954;BME280;25631;51.516;-0.470;2023-04-27T06:32:03;101499.84;;;8.48;34.90
39954;BME280;25631;51.516;-0.470;2023-04-27T06:34:40;101496.90;;;8.38;34.82
39954;BME280;25631;51.516;-0.470;2023-04-27T06:37:16;101493.76;;;8.63;34.77
39954;BME280;25631;51.516;-0.470;2023-04-27T06:39:53;101490.05;;;8.56;34.74
39954;BME280;25631;51.516;-0.470;2023-04-27T06:42:29;101487.32;;;8.68;34.72
39954;BME280;25631;51.516;-0.470;2023-04-27T06:45:06;101486.26;;;8.61;34.70
39954;BME280;25631;51.516;-0.470;2023-04-27T06:47:43;101482.46;;;8.43;34.62
39954;BME280;25631;51.516;-0.470;2023-04-27T06:50:19;101482.24;;;8.69;34.54
39954;BME280;25631;51.516;-0.470;2023-04-27T06:52:56;101481.76;;;9.00;34.50
39954;BME280;25631;51.516;-0.470;2023-04-27T06:55:32;101484.10;;;8.68;34.34
39954;BME280;25631;51.516;-0.470;2023-04-27T06:58:09;101486.19;;;8.80;34.19
39954;BME280;25631;51.516;-0.470;2023-04-27T07:00:46;101482.80;;;8.50;34.07
39954;BME280;25631;51.516;-0.470;2023-04-27T07:03:22;101484.58;;;8.80;34.06
39954;BME280;25631;51.516;-0.470;2023-04-27T07:05:59;101485.19;;;8.77;34.10
39954;BME280;25631;51.516;-0.470;2023-04-27T07:08:36;101482.58;;;8.79;33.97
39954;BME280;25631;51.516;-0.470;2023-04-27T07:11:13;101480.07;;;9.18;33.95
39954;BME280;25631;51.516;-0.470;2023-04-27T07:13:49;101480.65;;;9.05;33.99
39954;BME280;25631;51.516;-0.470;2023-04-27T07:16:26;101487.07;;;9.13;33.86
39954;BME280;25631;51.516;-0.470;2023-04-27T07:19:02;101487.95;;;9.15;33.80
39954;BME280;25631;51.516;-0.470;2023-04-27T07:21:39;101481.83;;;9.44;33.62
39954;BME280;25631;51.516;-0.470;2023-04-27T07:24:15;101477.37;;;9.20;33.65
39954;BME280;25631;51.516;-0.470;2023-04-27T07:26:52;101471.14;;;9.42;33.59
39954;BME280;25631;51.516;-0.470;2023-04-27T07:29:29;101470.76;;;9.33;33.48
39954;BME280;25631;51.516;-0.470;2023-04-27T07:32:07;101470.59;;;9.39;33.46
39954;BME280;25631;51.516;-0.470;2023-04-27T07:34:43;101472.85;;;9.22;33.43
39954;BME280;25631;51.516;-0.470;2023-04-27T07:37:25;101468.19;;;9.54;33.41
39954;BME280;25631;51.516;-0.470;2023-04-27T07:40:02;101470.60;;;9.53;33.31
39954;BME280;25631;51.516;-0.470;2023-04-27T07:42:39;101471.06;;;9.73;33.16
39954;BME280;25631;51.516;-0.470;2023-04-27T07:45:16;101479.12;;;9.54;32.94
39954;BME280;25631;51.516;-0.470;2023-04-27T07:47:52;101483.54;;;9.76;32.93
39954;BME280;25631;51.516;-0.470;2023-04-27T07:50:29;101482.83;;;9.71;32.94
39954;BME280;25631;51.516;-0.470;2023-04-27T07:53:06;101480.18;;;9.72;32.73
39954;BME280;25631;51.516;-0.470;2023-04-27T07:55:43;101479.35;;;9.79;32.38
39954;BME280;25631;51.516;-0.470;2023-04-27T07:58:19;101479.90;;;9.61;32.39
39954;BME280;25631;51.516;-0.470;2023-04-27T08:00:55;101476.62;;;9.75;32.39
39954;BME280;25631;51.516;-0.470;2023-04-27T08:03:32;101468.67;;;9.80;32.48
39954;BME280;25631;51.516;-0.470;2023-04-27T08:06:08;101467.14;;;9.98;32.41
39954;BME280;25631;51.516;-0.470;2023-04-27T08:08:45;101458.45;;;9.98;32.51
39954;BME280;25631;51.516;-0.470;2023-04-27T08:11:22;101456.76;;;9.99;32.52
39954;BME280;25631;51.516;-0.470;2023-04-27T08:13:58;101455.47;;;9.94;32.46
39954;BME280;25631;51.516;-0.470;2023-04-27T08:16:34;101459.56;;;9.96;32.28
39954;BME280;25631;51.516;-0.470;2023-04-27T08:19:11;101461.28;;;10.10;31.72
39954;BME280;25631;51.516;-0.470;2023-04-27T08:21:47;101466.09;;;10.32;31.48
39954;BME280;25631;51.516;-0.470;2023-04-27T08:24:24;101465.30;;;10.26;31.43
39954;BME280;25631;51.516;-0.470;2023-04-27T08:27:00;101461.42;;;10.28;31.12
39954;BME280;25631;51.516;-0.470;2023-04-27T08:29:37;101461.62;;;10.41;31.14
39954;BME280;25631;51.516;-0.470;2023-04-27T08:32:14;101459.20;;;10.51;30.97
39954;BME280;25631;51.516;-0.470;2023-04-27T08:34:50;101461.50;;;10.64;30.85
39954;BME280;25631;51.516;-0.470;2023-04-27T08:37:27;101462.79;;;10.49;30.36
39954;BME280;25631;51.516;-0.470;2023-04-27T08:40:05;101457.79;;;10.74;30.43
39954;BME280;25631;51.516;-0.470;2023-04-27T08:42:54;101458.70;;;10.64;30.18
39954;BME280;25631;51.516;-0.470;2023-04-27T08:45:31;101457.92;;;10.65;30.10
39954;BME280;25631;51.516;-0.470;2023-04-27T08:48:07;101452.58;;;10.63;29.84
39954;BME280;25631;51.516;-0.470;2023-04-27T08:50:45;101441.62;;;10.93;29.80
39954;BME280;25631;51.516;-0.470;2023-04-27T08:53:25;101424.95;;;10.89;29.85
39954;BME280;25631;51.516;-0.470;2023-04-27T08:56:03;101425.28;;;11.10;30.00
39954;BME280;25631;51.516;-0.470;2023-04-27T08:58:40;101429.87;;;11.18;29.79
39954;BME280;25631;51.516;-0.470;2023-04-27T09:01:16;101423.79;;;11.34;29.85
39954;BME280;25631;51.516;-0.470;2023-04-27T09:03:59;101424.34;;;11.57;29.80
39954;BME280;25631;51.516;-0.470;2023-04-27T09:06:36;101419.30;;;11.67;29.58
39954;BME280;25631;51.516;-0.470;2023-04-27T09:09:21;101416.31;;;11.62;29.00
39954;BME280;25631;51.516;-0.470;2023-04-27T09:11:58;101411.73;;;11.65;28.94
39954;BME280;25631;51.516;-0.470;2023-04-27T09:14:34;101409.28;;;11.70;28.52
39954;BME280;25631;51.516;-0.470;2023-04-27T09:17:12;101400.49;;;11.56;28.17
39954;BME280;25631;51.516;-0.470;2023-04-27T09:19:49;101403.13;;;11.67;28.47
39954;BME280;25631;51.516;-0.470;2023-04-27T09:22:25;101396.94;;;11.67;28.50
39954;BME280;25631;51.516;-0.470;2023-04-27T09:25:02;101397.72;;;11.88;28.54
39954;BME280;25631;51.516;-0.470;2023-04-27T09:27:38;101401.03;;;12.13;28.43
39954;BME280;25631;51.516;-0.470;2023-04-27T09:30:15;101403.54;;;12.00;27.79
39954;BME280;25631;51.516;-0.470;2023-04-27T09:32:53;101401.79;;;12.30;27.75
39954;BME280;25631;51.516;-0.470;2023-04-27T09:35:32;101404.10;;;12.51;27.71
39954;BME280;25631;51.516;-0.470;2023-04-27T09:38:08;101401.67;;;12.40;27.46
39954;BME280;25631;51.516;-0.470;2023-04-27T09:40:45;101397.38;;;12.40;27.44
39954;BME280;25631;51.516;-0.470;2023-04-27T09:43:24;101394.14;;;12.37;27.35
39954;BME280;25631;51.516;-0.470;2023-04-27T09:46:03;101389.86;;;12.44;26.55
39954;BME280;25631;51.516;-0.470;2023-04-27T09:48:40;101389.09;;;12.53;26.56
39954;BME280;25631;51.516;-0.470;2023-04-27T09:51:17;101386.44;;;12.45;26.56
39954;BME280;25631;51.516;-0.470;2023-04-27T09:53:57;101382.24;;;12.11;26.32
39954;BME280;25631;51.516;-0.470;2023-04-27T09:56:41;101378.99;;;12.35;26.09
39954;BME280;25631;51.516;-0.470;2023-04-27T09:59:43;101374.50;;;11.83;25.84
39954;BME280;25631;51.516;-0.470;2023-04-27T10:02:23;101373.95;;;11.90;25.98
39954;BME280;25631;51.516;-0.470;2023-04-27T10:05:15;101375.60;;;12.07;26.28
39954;BME280;25631;51.516;-0.470;2023-04-27T10:07:58;101380.53;;;11.82;26.48
39954;BME280;25631;51.516;-0.470;2023-04-27T10:10:45;101381.59;;;12.07;26.44
39954;BME280;25631;51.516;-0.470;2023-04-27T10:13:23;101377.31;;;12.26;26.54
39954;BME280;25631;51.516;-0.470;2023-04-27T10:16:14;101377.31;;;12.46;26.65
39954;BME280;25631;51.516;-0.470;2023-04-27T10:18:52;101376.79;;;12.52;27.06
39954;BME280;25631;51.516;-0.470;2023-04-27T10:21:29;101373.40;;;12.15;27.26
39954;BME280;25631;51.516;-0.470;2023-04-27T10:24:07;101375.13;;;12.62;27.25
39954;BME280;25631;51.516;-0.470;2023-04-27T10:26:46;101380.52;;;12.65;27.21
39954;BME280;25631;51.516;-0.470;2023-04-27T10:29:34;101367.81;;;13.06;27.01
39954;BME280;25631;51.516;-0.470;2023-04-27T10:32:12;101364.57;;;13.07;26.97
39954;BME280;25631;51.516;-0.470;2023-04-27T10:34:49;101357.41;;;13.22;26.97
39954;BME280;25631;51.516;-0.470;2023-04-27T10:37:37;101351.74;;;12.82;26.87
39954;BME280;25631;51.516;-0.470;2023-04-27T10:40:15;101351.45;;;12.87;27.14
39954;BME280;25631;51.516;-0.470;2023-04-27T10:42:52;101346.94;;;12.87;27.47
39954;BME280;25631;51.516;-0.470;2023-04-27T10:45:28;101342.25;;;12.77;27.39
39954;BME280;25631;51.516;-0.470;2023-04-27T10:48:05;101336.20;;;12.91;27.27
39954;BME280;25631;51.516;-0.470;2023-04-27T10:50:42;101331.56;;;12.98;27.13
39954;BME280;25631;51.516;-0.470;2023-04-27T10:53:19;101332.10;;;13.38;26.92
39954;BME280;25631;51.516;-0.470;2023-04-27T10:55:55;101327.30;;;13.20;26.73
39954;BME280;25631;51.516;-0.470;2023-04-27T10:58:32;101319.55;;;13.39;26.72
39954;BME280;25631;51.516;-0.470;2023-04-27T11:01:09;101308.37;;;13.30;26.96
39954;BME280;25631;51.516;-0.470;2023-04-27T11:03:54;101302.29;;;13.76;26.55
39954;BME280;25631;51.516;-0.470;2023-04-27T11:06:30;101296.06;;;13.48;26.33
39954;BME280;25631;51.516;-0.470;2023-04-27T11:09:07;101294.70;;;13.55;26.30
39954;BME280;25631;51.516;-0.470;2023-04-27T11:11:44;101293.60;;;13.62;26.25
39954;BME280;25631;51.516;-0.470;2023-04-27T11:14:20;101289.13;;;13.30;26.25
39954;BME280;25631;51.516;-0.470;2023-04-27T11:16:57;101289.34;;;13.25;26.05
39954;BME280;25631;51.516;-0.470;2023-04-27T11:19:43;101277.25;;;12.83;26.12
39954;BME280;25631;51.516;-0.470;2023-04-27T11:22:20;101275.93;;;13.11;26.13
39954;BME280;25631;51.516;-0.470;2023-04-27T11:24:56;101271.97;;;13.04;25.92
39954;BME280;25631;51.516;-0.470;2023-04-27T11:27:37;101266.82;;;13.13;26.05
39954;BME280;25631;51.516;-0.470;2023-04-27T11:30:22;101268.10;;;12.95;26.19
39954;BME280;25631;51.516;-0.470;2023-04-27T11:33:07;101262.18;;;13.02;26.16
39954;BME280;25631;51.516;-0.470;2023-04-27T11:35:43;101257.62;;;13.35;26.26
39954;BME280;25631;51.516;-0.470;2023-04-27T11:38:21;101250.97;;;13.28;26.11
39954;BME280;25631;51.516;-0.470;2023-04-27T11:40:59;101245.78;;;13.37;26.23
39954;BME280;25631;51.516;-0.470;2023-04-27T11:43:40;101257.42;;;13.57;26.14
39954;BME280;25631;51.516;-0.470;2023-04-27T11:46:19;101258.37;;;13.45;25.84
39954;BME280;25631;51.516;-0.470;2023-04-27T11:49:01;101256.91;;;13.85;25.84
39954;BME280;25631;51.516;-0.470;2023-04-27T11:51:39;101258.43;;;13.51;25.78
39954;BME280;25631;51.516;-0.470;2023-04-27T11:54:15;101253.86;;;13.49;25.79
39954;BME280;25631;51.516;-0.470;2023-04-27T11:56:51;101250.28;;;13.09;26.05
39954;BME280;25631;51.516;-0.470;2023-04-27T11:59:28;101242.58;;;13.23;25.96
39954;BME280;25631;51.516;-0.470;2023-04-27T12:02:04;101239.87;;;13.18;26.23
39954;BME280;25631;51.516;-0.470;2023-04-27T12:04:42;101232.98;;;12.75;26.25
39954;BME280;25631;51.516;-0.470;2023-04-27T12:07:19;101228.82;;;13.05;26.24
39954;BME280;25631;51.516;-0.470;2023-04-27T12:09:55;101227.20;;;13.08;26.43
39954;BME280;25631;51.516;-0.470;2023-04-27T12:12:32;101224.16;;;13.13;26.29
39954;BME280;25631;51.516;-0.470;2023-04-27T12:15:09;101218.36;;;13.05;26.41
39954;BME280;25631;51.516;-0.470;2023-04-27T12:17:46;101214.86;;;13.27;26.22
39954;BME280;25631;51.516;-0.470;2023-04-27T12:20:22;101207.95;;;13.41;26.26
39954;BME280;25631;51.516;-0.470;2023-04-27T12:22:59;101193.52;;;13.76;26.24
39954;BME280;25631;51.516;-0.470;2023-04-27T12:25:35;101190.77;;;13.72;26.22
39954;BME280;25631;51.516;-0.470;2023-04-27T12:28:12;101191.90;;;13.68;26.25
39954;BME280;25631;51.516;-0.470;2023-04-27T12:30:49;101190.33;;;13.70;26.09
39954;BME280;25631;51.516;-0.470;2023-04-27T12:33:25;101186.94;;;13.77;26.10
39954;BME280;25631;51.516;-0.470;2023-04-27T12:36:02;101173.25;;;13.94;25.99
39954;BME280;25631;51.516;-0.470;2023-04-27T12:38:38;101167.73;;;14.08;25.95
39954;BME280;25631;51.516;-0.470;2023-04-27T12:41:14;101169.14;;;14.21;25.50
39954;BME280;25631;51.516;-0.470;2023-04-27T12:43:51;101170.93;;;14.46;25.76
39954;BME280;25631;51.516;-0.470;2023-04-27T12:46:28;101176.56;;;14.57;25.63
39954;BME280;25631;51.516;-0.470;2023-04-27T12:49:05;101170.10;;;14.27;25.72
39954;BME280;25631;51.516;-0.470;2023-04-27T12:51:42;101163.91;;;14.29;25.50
39954;BME280;25631;51.516;-0.470;2023-04-27T12:54:19;101166.70;;;14.32;25.53
39954;BME280;25631;51.516;-0.470;2023-04-27T12:56:56;101169.83;;;14.38;25.70
39954;BME280;25631;51.516;-0.470;2023-04-27T12:59:38;101173.58;;;14.20;25.76
39954;BME280;25631;51.516;-0.470;2023-04-27T13:02:14;101168.31;;;13.97;26.05
39954;BME280;25631;51.516;-0.470;2023-04-27T13:04:51;101161.89;;;14.09;26.09
39954;BME280;25631;51.516;-0.470;2023-04-27T13:07:28;101160.51;;;14.01;26.29
39954;BME280;25631;51.516;-0.470;2023-04-27T13:10:05;101157.93;;;14.09;26.36
39954;BME280;25631;51.516;-0.470;2023-04-27T13:12:42;101156.03;;;13.88;26.46
39954;BME280;25631;51.516;-0.470;2023-04-27T13:15:19;101173.72;;;13.85;26.74
39954;BME280;25631;51.516;-0.470;2023-04-27T13:17:55;101184.77;;;13.89;26.69
39954;BME280;25631;51.516;-0.470;2023-04-27T13:20:32;101185.07;;;13.50;26.87
39954;BME280;25631;51.516;-0.470;2023-04-27T13:23:09;101171.50;;;13.94;26.93
39954;BME280;25631;51.516;-0.470;2023-04-27T13:25:45;101169.57;;;13.78;27.00
39954;BME280;25631;51.516;-0.470;2023-04-27T13:28:22;101166.50;;;13.86;27.15
39954;BME280;25631;51.516;-0.470;2023-04-27T13:30:59;101163.65;;;13.65;27.16
39954;BME280;25631;51.516;-0.470;2023-04-27T13:33:38;101165.96;;;13.62;27.38
39954;BME280;25631;51.516;-0.470;2023-04-27T13:36:15;101170.77;;;13.49;27.53